Time;durP1;ratioP1;P1;durP2;ratioP2;P2;SDS_P1;SDS_P2;PMS_P1;PMS_P2;Temp;Humidity;BMP_temperature;BMP_pressure;BME280_temperature;BME280_humidity;BME280_pressure;Samples;Min_cycle;Max_cycle;Signal;HPM_P1;HPM_P2
2023/04/21 06:33:47;;;;;;;;;0.00;0.00;;;;;;;;6229988;22;49667;-79
2023/04/21 06:36:12;;;;;;;;;0.00;0.00;;;;;;;;6231129;22;50549;-82
2023/04/21 06:38:40;;;;;;;;;0.00;0.00;;;;;;;;6233791;22;49838;-73
2023/04/21 06:41:06;;;;;;;;;0.00;0.00;;;;;;;;6234858;22;50049;-78
2023/04/21 06:43:31;;;;;;;;;0.00;0.00;;;;;;;;6233602;22;49546;-74
2023/04/21 06:45:56;;;;;;;;;0.00;0.00;;;;;;;;6235216;22;49972;-74
2023/04/21 06:48:23;;;;;;;;;3.33;2.00;;;;;;;;6234568;22;49779;-79
2023/04/21 06:50:48;;;;;;;;;0.00;0.00;;;;;;;;6234208;22;49953;-73
2023/04/21 06:53:13;;;;;;;;;1.00;1.00;;;;;;;;6256172;22;49849;-76
2023/04/21 06:55:38;;;;;;;;;3.25;3.25;;;;;;;;6265764;22;50024;-72
2023/04/21 06:58:04;;;;;;;;;4.33;3.00;;;;;;;;6237952;22;49740;-71
2023/04/21 07:00:29;;;;;;;;;8.50;7.75;;;;;;;;6238380;22;50370;-72
2023/04/21 07:02:54;;;;;;;;;0.00;0.00;;;;;;;;6265752;22;49920;-72
2023/04/21 07:05:19;;;;;;;;;0.00;0.00;;;;;;;;6265987;22;49847;-72
2023/04/21 07:07:44;;;;;;;;;0.00;0.00;;;;;;;;6265709;22;49909;-72
2023/04/21 07:10:10;;;;;;;;;0.00;0.00;;;;;;;;6238313;22;49915;-71
2023/04/21 07:12:35;;;;;;;;;0.00;0.00;;;;;;;;6265359;22;49938;-72
2023/04/21 07:15:00;;;;;;;;;5.00;2.33;;;;;;;;6265967;22;50261;-72
2023/04/21 07:17:25;;;;;;;;;0.00;0.00;;;;;;;;6265323;22;50054;-73
2023/04/21 07:19:50;;;;;;;;;0.25;0.25;;;;;;;;6237428;22;49731;-73
2023/04/21 07:22:16;;;;;;;;;0.00;0.00;;;;;;;;6265997;22;49976;-73
2023/04/21 07:24:41;;;;;;;;;0.00;0.00;;;;;;;;6265604;22;50560;-73
2023/04/21 07:27:06;;;;;;;;;0.00;0.00;;;;;;;;6264364;22;49883;-75
2023/04/21 07:29:31;;;;;;;;;0.00;0.00;;;;;;;;6265745;22;50162;-74
2023/04/21 07:31:57;;;;;;;;;0.00;0.00;;;;;;;;6265694;22;49603;-74
2023/04/21 07:34:23;;;;;;;;;0.00;0.00;;;;;;;;6265560;22;49668;-74
2023/04/21 07:36:48;;;;;;;;;0.00;0.00;;;;;;;;6265782;22;49699;-75
2023/04/21 07:39:14;;;;;;;;;0.00;0.00;;;;;;;;6265823;22;50176;-75
2023/04/21 07:41:39;;;;;;;;;0.00;0.00;;;;;;;;6265175;22;49889;-72
2023/04/21 07:44:04;;;;;;;;;6.00;1.00;;;;;;;;6265271;22;50310;-73
2023/04/21 07:46:30;;;;;;;;;1.67;1.67;;;;;;;;6264826;22;49923;-72
2023/04/21 07:48:56;;;;;;;;;0.00;0.00;;;;;;;;6237631;22;49532;-70
2023/04/21 07:51:22;;;;;;;;;1.00;0.00;;;;;;;;6265619;22;49507;-71
2023/04/21 07:53:47;;;;;;;;;0.00;0.00;;;;;;;;6265125;22;50706;-71
2023/04/21 07:56:12;;;;;;;;;0.00;0.00;;;;;;;;6265389;22;49940;-73
2023/04/21 07:58:37;;;;;;;;;0.00;0.00;;;;;;;;6265096;22;49859;-72
2023/04/21 08:01:03;;;;;;;;;1.00;0.00;;;;;;;;6265423;22;50465;-74
2023/04/21 08:03:28;;;;;;;;;0.00;0.00;;;;;;;;6265604;22;50817;-79
2023/04/21 08:05:53;;;;;;;;;0.67;0.67;;;;;;;;6266008;22;50171;-80
2023/04/21 08:08:20;;;;;;;;;0.00;0.00;;;;;;;;6237621;22;49585;-80
2023/04/21 08:10:46;;;;;;;;;0.00;0.00;;;;;;;;6265487;22;49903;-80
2023/04/21 08:13:11;;;;;;;;;0.00;0.00;;;;;;;;6265118;22;50209;-80
2023/04/21 08:15:36;;;;;;;;;0.00;0.00;;;;;;;;6266000;22;50021;-80
2023/04/21 08:18:01;;;;;;;;;0.00;0.00;;;;;;;;6265523;22;50029;-80
2023/04/21 08:20:26;;;;;;;;;5.50;5.50;;;;;;;;6265916;22;49613;-79
2023/04/21 08:22:52;;;;;;;;;1.50;1.50;;;;;;;;6264519;22;50532;-80
2023/04/21 08:25:17;;;;;;;;;0.00;0.00;;;;;;;;6236939;22;49851;-81
2023/04/21 08:27:42;;;;;;;;;0.00;0.00;;;;;;;;6263454;22;49725;-80
2023/04/21 08:30:08;;;;;;;;;0.00;0.00;;;;;;;;6266086;22;49846;-79
2023/04/21 08:32:33;;;;;;;;;0.00;0.00;;;;;;;;6265203;22;49956;-79
2023/04/21 08:34:58;;;;;;;;;0.67;0.00;;;;;;;;6264259;22;49859;-79
2023/04/21 08:37:23;;;;;;;;;0.67;0.67;;;;;;;;6265000;22;49612;-78
2023/04/21 08:39:49;;;;;;;;;0.00;0.00;;;;;;;;6264707;22;50470;-79
2023/04/21 08:42:15;;;;;;;;;9.00;9.00;;;;;;;;6265025;22;50349;-79
2023/04/21 08:44:41;;;;;;;;;0.00;0.00;;;;;;;;6265646;22;50031;-80
2023/04/21 08:47:08;;;;;;;;;0.00;0.00;;;;;;;;6265831;22;49706;-79
2023/04/21 08:49:34;;;;;;;;;0.00;0.00;;;;;;;;6265789;22;49821;-79
2023/04/21 08:51:59;;;;;;;;;6.00;6.00;;;;;;;;6264549;22;50422;-79
2023/04/21 08:54:25;;;;;;;;;0.00;0.00;;;;;;;;6265845;22;49698;-79
2023/04/21 08:56:50;;;;;;;;;0.00;0.00;;;;;;;;6237816;22;49559;-79
2023/04/21 08:59:15;;;;;;;;;0.00;0.00;;;;;;;;6266166;22;49600;-79
2023/04/21 09:01:59;;;;;;;;;1.00;0.00;;;;;;;;6264033;22;50646;-80
2023/04/21 09:04:24;;;;;;;;;0.00;0.00;;;;;;;;6265835;22;49863;-79
2023/04/21 09:06:49;;;;;;;;;10.00;10.00;;;;;;;;6265805;22;49758;-81
2023/04/21 09:09:14;;;;;;;;;0.00;0.00;;;;;;;;6265833;22;49857;-81
2023/04/21 09:11:40;;;;;;;;;0.00;0.00;;;;;;;;6265218;22;49941;-81
2023/04/21 09:14:05;;;;;;;;;12.00;9.00;;;;;;;;6265145;22;49764;-81
2023/04/21 09:16:32;;;;;;;;;4.00;4.00;;;;;;;;6265143;22;49534;-81
2023/04/21 09:18:58;;;;;;;;;0.00;0.00;;;;;;;;6265693;22;49616;-81
2023/04/21 09:21:26;;;;;;;;;0.00;0.00;;;;;;;;6265290;22;50513;-81
2023/04/21 09:23:52;;;;;;;;;0.00;0.00;;;;;;;;6265176;22;50021;-81
2023/04/21 09:26:19;;;;;;;;;0.00;0.00;;;;;;;;6265545;22;49997;-82
2023/04/21 09:28:45;;;;;;;;;0.50;0.00;;;;;;;;6265541;22;49897;-82
2023/04/21 09:31:15;;;;;;;;;0.00;0.00;;;;;;;;6265367;22;51122;-80
2023/04/21 09:33:43;;;;;;;;;0.25;0.25;;;;;;;;6265482;22;49727;-80
2023/04/21 09:36:16;;;;;;;;;0.00;0.00;;;;;;;;6264624;22;49730;-80
2023/04/21 09:38:41;;;;;;;;;3.00;3.00;;;;;;;;6265811;22;50005;-80
2023/04/21 09:41:07;;;;;;;;;0.00;0.00;;;;;;;;6264913;22;50716;-80
2023/04/21 09:43:32;;;;;;;;;0.00;0.00;;;;;;;;6263525;22;49662;-80
2023/04/21 09:45:57;;;;;;;;;4.33;4.33;;;;;;;;6263701;22;49769;-79
2023/04/21 09:48:24;;;;;;;;;6.00;4.50;;;;;;;;6263134;22;49803;-77
2023/04/21 09:50:50;;;;;;;;;0.00;0.00;;;;;;;;6263069;22;51483;-77
2023/04/21 09:53:17;;;;;;;;;0.00;0.00;;;;;;;;6261680;22;49988;-76
2023/04/21 09:55:46;;;;;;;;;0.00;0.00;;;;;;;;6262678;22;50008;-74
2023/04/21 09:58:12;;;;;;;;;0.00;0.00;;;;;;;;6263528;22;50240;-74
2023/04/21 10:00:38;;;;;;;;;0.00;0.00;;;;;;;;6235365;22;49964;-79
2023/04/21 10:03:04;;;;;;;;;0.00;0.00;;;;;;;;6263050;22;49705;-79
2023/04/21 10:05:29;;;;;;;;;0.25;0.25;;;;;;;;6263602;22;49877;-80
2023/04/21 10:07:55;;;;;;;;;2.75;2.25;;;;;;;;6263861;22;50399;-80
2023/04/21 10:10:23;;;;;;;;;0.00;0.00;;;;;;;;6263231;22;49931;-80
2023/04/21 10:12:50;;;;;;;;;0.00;0.00;;;;;;;;6262409;22;49582;-80
2023/04/21 10:15:29;;;;;;;;;5.75;2.75;;;;;;;;6263153;22;49761;-80
2023/04/21 10:18:15;;;;;;;;;0.00;0.00;;;;;;;;6262581;22;49934;-78
2023/04/21 10:20:50;;;;;;;;;0.00;0.00;;;;;;;;6262604;22;50612;-79
2023/04/21 10:23:25;;;;;;;;;0.00;0.00;;;;;;;;6263114;22;49646;-79
2023/04/21 10:25:50;;;;;;;;;1.50;0.50;;;;;;;;6263292;22;49855;-79
2023/04/21 10:28:18;;;;;;;;;1.00;1.00;;;;;;;;6263348;22;49940;-79
2023/04/21 10:30:43;;;;;;;;;0.00;0.00;;;;;;;;6262467;22;50535;-79
2023/04/21 10:33:08;;;;;;;;;0.00;0.00;;;;;;;;6263938;22;49937;-81
2023/04/21 10:35:52;;;;;;;;;0.00;0.00;;;;;;;;6263671;22;49622;-80
2023/04/21 10:38:32;;;;;;;;;0.00;0.00;;;;;;;;6236564;22;50069;-79
2023/04/21 10:41:07;;;;;;;;;0.00;0.00;;;;;;;;6262403;22;49914;-79
2023/04/21 10:43:43;;;;;;;;;0.00;0.00;;;;;;;;6264272;22;49981;-80
2023/04/21 10:46:27;;;;;;;;;0.00;0.00;;;;;;;;6264651;22;49929;-80
2023/04/21 10:48:52;;;;;;;;;0.00;0.00;;;;;;;;6266146;22;49571;-80
2023/04/21 10:51:18;;;;;;;;;0.00;0.00;;;;;;;;6237845;22;52020;-79
2023/04/21 10:53:43;;;;;;;;;0.00;0.00;;;;;;;;6264710;22;49863;-78
2023/04/21 10:56:08;;;;;;;;;0.00;0.00;;;;;;;;6265677;22;49588;-78
2023/04/21 10:58:35;;;;;;;;;0.00;0.00;;;;;;;;6264669;22;49978;-78
2023/04/21 11:01:02;;;;;;;;;0.00;0.00;;;;;;;;6264167;22;49595;-79
2023/04/21 11:03:33;;;;;;;;;1.00;1.00;;;;;;;;6264265;22;50052;-79
2023/04/21 11:05:58;;;;;;;;;0.75;0.00;;;;;;;;6262980;22;49980;-79
2023/04/21 11:08:24;;;;;;;;;0.00;0.00;;;;;;;;6264588;22;49496;-80
2023/04/21 11:10:51;;;;;;;;;0.00;0.00;;;;;;;;6262860;22;50134;-78
2023/04/21 11:13:16;;;;;;;;;0.00;0.00;;;;;;;;6263927;22;49680;-79
2023/04/21 11:15:54;;;;;;;;;0.00;0.00;;;;;;;;6236627;22;49711;-79
2023/04/21 11:18:19;;;;;;;;;0.00;0.00;;;;;;;;6264432;22;49665;-79
2023/04/21 11:20:45;;;;;;;;;0.00;0.00;;;;;;;;6263687;22;50201;-79
2023/04/21 11:23:15;;;;;;;;;0.00;0.00;;;;;;;;6263674;22;49689;-78
2023/04/21 11:25:44;;;;;;;;;0.75;0.75;;;;;;;;6264272;22;50033;-79
2023/04/21 11:28:09;;;;;;;;;0.00;0.00;;;;;;;;6236447;22;49981;-78
2023/04/21 11:30:35;;;;;;;;;0.00;0.00;;;;;;;;6263942;22;50126;-80
2023/04/21 11:33:00;;;;;;;;;0.00;0.00;;;;;;;;6264039;22;49981;-80
2023/04/21 11:35:25;;;;;;;;;0.00;0.00;;;;;;;;6263782;22;49626;-79
2023/04/21 11:37:51;;;;;;;;;0.00;0.00;;;;;;;;6264187;22;49953;-79
2023/04/21 11:40:16;;;;;;;;;0.00;0.00;;;;;;;;6264049;22;50819;-80
2023/04/21 11:42:41;;;;;;;;;0.00;0.00;;;;;;;;6263522;22;49741;-78
2023/04/21 11:45:07;;;;;;;;;0.50;0.00;;;;;;;;6263675;22;49757;-78
2023/04/21 11:47:32;;;;;;;;;0.00;0.00;;;;;;;;6263216;22;49905;-80
2023/04/21 11:49:59;;;;;;;;;0.25;0.00;;;;;;;;6262802;22;50610;-80
2023/04/21 11:52:24;;;;;;;;;0.00;0.00;;;;;;;;6263143;22;49729;-80
2023/04/21 11:54:53;;;;;;;;;0.00;0.00;;;;;;;;6263725;22;50058;-79
2023/04/21 11:57:18;;;;;;;;;0.00;0.00;;;;;;;;6263979;22;50080;-79
2023/04/21 11:59:44;;;;;;;;;0.00;0.00;;;;;;;;6262818;22;49975;-78
2023/04/21 12:02:12;;;;;;;;;0.00;0.00;;;;;;;;6263720;22;49725;-78
2023/04/21 12:04:37;;;;;;;;;0.00;0.00;;;;;;;;6264199;22;49578;-79
2023/04/21 12:07:02;;;;;;;;;0.00;0.00;;;;;;;;6264679;22;49801;-74
2023/04/21 12:09:28;;;;;;;;;0.00;0.00;;;;;;;;6264222;22;49598;-75
2023/04/21 12:11:54;;;;;;;;;0.00;0.00;;;;;;;;6263659;22;50230;-74
2023/04/21 12:14:21;;;;;;;;;0.00;0.00;;;;;;;;6235916;22;50034;-73
2023/04/21 12:16:54;;;;;;;;;0.00;0.00;;;;;;;;6263857;22;50258;-73
2023/04/21 12:19:24;;;;;;;;;0.00;0.00;;;;;;;;6264787;22;50052;-77
2023/04/21 12:21:54;;;;;;;;;0.00;0.00;;;;;;;;6264123;22;49725;-74
2023/04/21 12:24:19;;;;;;;;;0.00;0.00;;;;;;;;6267853;22;49748;-73
2023/04/21 12:26:45;;;;;;;;;0.00;0.00;;;;;;;;6269098;22;49658;-73
2023/04/21 12:29:10;;;;;;;;;0.00;0.00;;;;;;;;6240218;22;50156;-76
2023/04/21 12:31:35;;;;;;;;;0.00;0.00;;;;;;;;6265891;22;50021;-76
2023/04/21 12:34:00;;;;;;;;;0.00;0.00;;;;;;;;6265512;22;50054;-76
2023/04/21 12:36:26;;;;;;;;;0.00;0.00;;;;;;;;6264375;22;49960;-77
2023/04/21 12:38:52;;;;;;;;;0.00;0.00;;;;;;;;6263853;22;50449;-76
2023/04/21 12:41:17;;;;;;;;;0.00;0.00;;;;;;;;6238367;22;49938;-75
2023/04/21 12:43:42;;;;;;;;;0.00;0.00;;;;;;;;6263610;22;49711;-74
2023/04/21 12:46:07;;;;;;;;;0.00;0.00;;;;;;;;6263112;22;49957;-76
2023/04/21 12:48:33;;;;;;;;;0.33;0.33;;;;;;;;6263824;22;50928;-77
2023/04/21 12:50:58;;;;;;;;;0.00;0.00;;;;;;;;6263328;22;49764;-76
2023/04/21 12:53:24;;;;;;;;;0.00;0.00;;;;;;;;6263401;22;49606;-77
2023/04/21 12:55:49;;;;;;;;;0.00;0.00;;;;;;;;6263840;22;49812;-76
2023/04/21 12:58:15;;;;;;;;;0.00;0.00;;;;;;;;6263345;22;50788;-75
2023/04/21 13:00:41;;;;;;;;;0.75;0.75;;;;;;;;6236093;22;49743;-76
2023/04/21 13:03:06;;;;;;;;;0.00;0.00;;;;;;;;6263257;22;49983;-75
2023/04/21 13:05:31;;;;;;;;;0.00;0.00;;;;;;;;6235812;22;49958;-76
2023/04/21 13:07:57;;;;;;;;;0.00;0.00;;;;;;;;6263595;22;50214;-75
2023/04/21 13:10:22;;;;;;;;;3.00;1.00;;;;;;;;6263586;22;49752;-76
2023/04/21 13:12:47;;;;;;;;;0.00;0.00;;;;;;;;6263139;22;49867;-76
2023/04/21 13:15:12;;;;;;;;;0.00;0.00;;;;;;;;6263897;22;49554;-77
2023/04/21 13:17:37;;;;;;;;;0.00;0.00;;;;;;;;6263677;22;50460;-76
2023/04/21 13:20:03;;;;;;;;;0.00;0.00;;;;;;;;6262809;22;50066;-76
2023/04/21 13:22:28;;;;;;;;;0.00;0.00;;;;;;;;6263897;22;49777;-76
2023/04/21 13:24:54;;;;;;;;;0.00;0.00;;;;;;;;6235492;22;49869;-76
2023/04/21 13:27:19;;;;;;;;;0.00;0.00;;;;;;;;6261724;22;49993;-77
2023/04/21 13:29:46;;;;;;;;;0.00;0.00;;;;;;;;6258529;22;49656;-76
2023/04/21 13:32:11;;;;;;;;;0.00;0.00;;;;;;;;6263731;22;49871;-78
2023/04/21 13:34:36;;;;;;;;;0.00;0.00;;;;;;;;6264348;22;49603;-78
2023/04/21 13:37:01;;;;;;;;;0.00;0.00;;;;;;;;6264429;22;49589;-77
2023/04/21 13:39:27;;;;;;;;;3.00;1.00;;;;;;;;6264366;22;49837;-77
2023/04/21 13:41:52;;;;;;;;;0.00;0.00;;;;;;;;6263388;22;49685;-77
2023/04/21 13:44:18;;;;;;;;;3.00;1.00;;;;;;;;6264700;22;50012;-77
2023/04/21 13:46:43;;;;;;;;;0.00;0.00;;;;;;;;6264501;22;49735;-75
2023/04/21 13:49:09;;;;;;;;;0.00;0.00;;;;;;;;6264492;22;49993;-76
2023/04/21 13:51:34;;;;;;;;;1.00;0.00;;;;;;;;6264691;22;50000;-76
2023/04/21 13:53:59;;;;;;;;;0.00;0.00;;;;;;;;6264060;22;49684;-77
2023/04/21 13:56:25;;;;;;;;;0.00;0.00;;;;;;;;6235037;22;51569;-75
2023/04/21 13:58:50;;;;;;;;;0.00;0.00;;;;;;;;6264361;22;49752;-74
2023/04/21 14:01:15;;;;;;;;;0.00;0.00;;;;;;;;6264478;22;49966;-78
2023/04/21 14:03:41;;;;;;;;;0.00;0.00;;;;;;;;6264733;22;49621;-75
2023/04/21 14:06:06;;;;;;;;;0.00;0.00;;;;;;;;6264310;22;50724;-77
2023/04/21 14:08:31;;;;;;;;;0.00;0.00;;;;;;;;6263061;22;49710;-75
2023/04/21 14:10:57;;;;;;;;;0.00;0.00;;;;;;;;6234025;22;50000;-75
2023/04/21 14:13:22;;;;;;;;;0.00;0.00;;;;;;;;6235590;22;50438;-78
2023/04/21 14:15:48;;;;;;;;;0.00;0.00;;;;;;;;6263799;22;50740;-75
2023/04/21 14:18:13;;;;;;;;;1.50;0.25;;;;;;;;6263830;22;49598;-77
2023/04/21 14:20:38;;;;;;;;;0.00;0.00;;;;;;;;6263856;22;49677;-77
2023/04/21 14:23:04;;;;;;;;;0.00;0.00;;;;;;;;6265199;22;50133;-75
2023/04/21 14:25:29;;;;;;;;;3.00;3.00;;;;;;;;6264593;22;49714;-75
2023/04/21 14:27:54;;;;;;;;;0.75;0.75;;;;;;;;6264871;22;49971;-82
2023/04/21 14:30:20;;;;;;;;;0.00;0.00;;;;;;;;6265180;22;49828;-80
2023/04/21 14:32:45;;;;;;;;;1.25;1.25;;;;;;;;6266034;22;49999;-80
2023/04/21 14:35:11;;;;;;;;;0.00;0.00;;;;;;;;6265406;22;50334;-82
2023/04/21 14:37:36;;;;;;;;;9.00;9.00;;;;;;;;6265536;22;49590;-78
2023/04/21 14:40:02;;;;;;;;;0.00;0.00;;;;;;;;6266194;22;49480;-78
2023/04/21 14:42:27;;;;;;;;;0.75;0.75;;;;;;;;6265779;22;50051;-75
2023/04/21 14:44:53;;;;;;;;;0.00;0.00;;;;;;;;6264920;22;49821;-83
2023/04/21 14:47:19;;;;;;;;;0.00;0.00;;;;;;;;6265045;22;50048;-72
2023/04/21 14:49:45;;;;;;;;;0.00;0.00;;;;;;;;6264307;22;49813;-72
2023/04/21 14:52:10;;;;;;;;;0.00;0.00;;;;;;;;6264698;22;50026;-72
2023/04/21 14:54:35;;;;;;;;;0.00;0.00;;;;;;;;6236890;22;51333;-71
2023/04/21 14:57:01;;;;;;;;;0.00;0.00;;;;;;;;6264868;22;49585;-73
2023/04/21 14:59:26;;;;;;;;;1.00;1.00;;;;;;;;6264707;22;49781;-72
2023/04/21 15:01:51;;;;;;;;;0.00;0.00;;;;;;;;6264311;22;49867;-73
2023/04/21 15:04:16;;;;;;;;;0.00;0.00;;;;;;;;6265000;22;50350;-73
2023/04/21 15:06:41;;;;;;;;;0.00;0.00;;;;;;;;6265331;22;49843;-73
2023/04/21 15:09:06;;;;;;;;;0.00;0.00;;;;;;;;6265025;22;49663;-73
2023/04/21 15:11:32;;;;;;;;;0.00;0.00;;;;;;;;6265075;22;49952;-73
2023/04/21 15:13:57;;;;;;;;;0.00;0.00;;;;;;;;6236347;22;49772;-72
2023/04/21 15:16:22;;;;;;;;;0.00;0.00;;;;;;;;6265522;22;49892;-74
2023/04/21 15:18:47;;;;;;;;;0.00;0.00;;;;;;;;6265272;22;49666;-72
2023/04/21 15:21:13;;;;;;;;;0.00;0.00;;;;;;;;6266084;22;49812;-73
2023/04/21 15:23:38;;;;;;;;;0.00;0.00;;;;;;;;6265525;22;49638;-73
2023/04/21 15:26:03;;;;;;;;;0.00;0.00;;;;;;;;6265661;22;49574;-73
2023/04/21 15:28:28;;;;;;;;;0.00;0.00;;;;;;;;6265569;22;49814;-73
2023/04/21 15:30:54;;;;;;;;;0.00;0.00;;;;;;;;6266255;22;49960;-73
2023/04/21 15:33:19;;;;;;;;;0.00;0.00;;;;;;;;6264607;22;50511;-71
2023/04/21 15:35:46;;;;;;;;;0.00;0.00;;;;;;;;6264082;22;49825;-71
2023/04/21 15:38:11;;;;;;;;;0.00;0.00;;;;;;;;6265519;22;49978;-71
2023/04/21 15:40:36;;;;;;;;;0.00;0.00;;;;;;;;6266139;22;49574;-72
2023/04/21 15:43:01;;;;;;;;;0.00;0.00;;;;;;;;6263474;22;50570;-71
2023/04/21 15:45:27;;;;;;;;;0.00;0.00;;;;;;;;6264554;22;49993;-72
2023/04/21 15:47:52;;;;;;;;;0.00;0.00;;;;;;;;6264978;22;49499;-72
2023/04/21 15:50:17;;;;;;;;;0.00;0.00;;;;;;;;6265678;22;49966;-72
2023/04/21 15:52:43;;;;;;;;;0.33;0.00;;;;;;;;6263646;22;50194;-71
2023/04/21 15:55:11;;;;;;;;;0.00;0.00;;;;;;;;6263578;22;50047;-73
2023/04/21 15:57:36;;;;;;;;;0.00;0.00;;;;;;;;6237053;22;49624;-72
2023/04/21 16:00:04;;;;;;;;;0.00;0.00;;;;;;;;6264375;22;50302;-72
2023/04/21 16:02:29;;;;;;;;;0.00;0.00;;;;;;;;6264128;22;50264;-71
2023/04/21 16:04:54;;;;;;;;;0.00;0.00;;;;;;;;6265266;22;50190;-72
2023/04/21 16:07:19;;;;;;;;;0.00;0.00;;;;;;;;6260633;22;50126;-70
2023/04/21 16:09:45;;;;;;;;;0.00;0.00;;;;;;;;6265053;22;50036;-71
2023/04/21 16:12:10;;;;;;;;;5.50;3.50;;;;;;;;6264865;22;50252;-71
2023/04/21 16:14:37;;;;;;;;;0.00;0.00;;;;;;;;6265372;22;49603;-71
2023/04/21 16:17:02;;;;;;;;;0.00;0.00;;;;;;;;6265398;22;49827;-72
2023/04/21 16:19:27;;;;;;;;;0.00;0.00;;;;;;;;6265709;22;49969;-71
2023/04/21 16:21:53;;;;;;;;;0.00;0.00;;;;;;;;6263584;22;50529;-71
2023/04/21 16:24:19;;;;;;;;;0.00;0.00;;;;;;;;6264216;22;49567;-72
2023/04/21 16:26:44;;;;;;;;;0.00;0.00;;;;;;;;6265009;22;49643;-72
2023/04/21 16:29:09;;;;;;;;;0.00;0.00;;;;;;;;6266185;22;49557;-71
2023/04/21 16:31:35;;;;;;;;;0.00;0.00;;;;;;;;6265438;22;51056;-71
2023/04/21 16:34:00;;;;;;;;;0.25;0.25;;;;;;;;6264945;22;49859;-72
2023/04/21 16:36:26;;;;;;;;;0.00;0.00;;;;;;;;6259440;22;49744;-71
2023/04/21 16:38:52;;;;;;;;;0.00;0.00;;;;;;;;6265753;22;49681;-72
2023/04/21 16:41:17;;;;;;;;;0.75;0.00;;;;;;;;6265371;22;50153;-72
2023/04/21 16:43:42;;;;;;;;;0.00;0.00;;;;;;;;6265168;22;49748;-71
2023/04/21 16:46:08;;;;;;;;;0.00;0.00;;;;;;;;6265923;22;49820;-72
2023/04/21 16:48:33;;;;;;;;;0.00;0.00;;;;;;;;6265604;22;49947;-72
2023/04/21 16:50:58;;;;;;;;;0.00;0.00;;;;;;;;6264441;22;49782;-71
2023/04/21 16:53:24;;;;;;;;;0.00;0.00;;;;;;;;6265384;22;49808;-72
2023/04/21 16:55:50;;;;;;;;;0.00;0.00;;;;;;;;6265212;22;49618;-72
2023/04/21 16:58:15;;;;;;;;;0.00;0.00;;;;;;;;6264503;22;49626;-72
2023/04/21 17:00:40;;;;;;;;;0.00;0.00;;;;;;;;6264460;22;50568;-70
2023/04/21 17:03:06;;;;;;;;;0.00;0.00;;;;;;;;6263529;22;49872;-73
2023/04/21 17:05:31;;;;;;;;;0.00;0.00;;;;;;;;6258069;22;50181;-73
2023/04/21 17:07:56;;;;;;;;;0.00;0.00;;;;;;;;6264470;22;49539;-72
2023/04/21 17:10:21;;;;;;;;;0.00;0.00;;;;;;;;6263555;22;51535;-72
2023/04/21 17:12:46;;;;;;;;;0.00;0.00;;;;;;;;6262916;22;49867;-72
2023/04/21 17:15:12;;;;;;;;;0.00;0.00;;;;;;;;6264070;22;49573;-72
2023/04/21 17:17:41;;;;;;;;;0.00;0.00;;;;;;;;6263708;22;49597;-71
2023/04/21 17:20:08;;;;;;;;;0.00;0.00;;;;;;;;6263804;22;50593;-71
2023/04/21 17:22:35;;;;;;;;;0.00;0.00;;;;;;;;6263885;22;49944;-71
2023/04/21 17:25:00;;;;;;;;;0.00;0.00;;;;;;;;6263462;22;49910;-70
2023/04/21 17:27:25;;;;;;;;;0.00;0.00;;;;;;;;6237545;22;49859;-73
2023/04/21 17:29:51;;;;;;;;;7.00;7.00;;;;;;;;6236942;22;51008;-72
2023/04/21 17:32:16;;;;;;;;;0.00;0.00;;;;;;;;6262347;22;49751;-72
2023/04/21 17:34:41;;;;;;;;;0.00;0.00;;;;;;;;6264924;22;49580;-73
2023/04/21 17:37:06;;;;;;;;;0.00;0.00;;;;;;;;6265246;22;49876;-71
2023/04/21 17:39:31;;;;;;;;;0.00;0.00;;;;;;;;6262553;22;50009;-73
2023/04/21 17:41:57;;;;;;;;;0.00;0.00;;;;;;;;6264513;22;49942;-73
2023/04/21 17:44:22;;;;;;;;;0.00;0.00;;;;;;;;6263397;22;49817;-73
2023/04/21 17:46:47;;;;;;;;;0.00;0.00;;;;;;;;6265065;22;50113;-73
2023/04/21 17:49:13;;;;;;;;;0.00;0.00;;;;;;;;6263988;22;49904;-73
2023/04/21 17:51:38;;;;;;;;;0.00;0.00;;;;;;;;6264284;22;50033;-73
2023/04/21 17:54:04;;;;;;;;;0.00;0.00;;;;;;;;6256661;22;50360;-73
2023/04/21 17:56:29;;;;;;;;;0.00;0.00;;;;;;;;6265491;22;50000;-76
2023/04/21 17:58:54;;;;;;;;;0.00;0.00;;;;;;;;6265581;22;50856;-79
2023/04/21 18:01:19;;;;;;;;;0.00;0.00;;;;;;;;6266394;22;49777;-78
2023/04/21 18:03:45;;;;;;;;;0.00;0.00;;;;;;;;6264599;22;49976;-77
2023/04/21 18:06:12;;;;;;;;;0.00;0.00;;;;;;;;6266577;22;50335;-76
2023/04/21 18:08:37;;;;;;;;;0.00;0.00;;;;;;;;6263836;22;49846;-76
2023/04/21 18:11:02;;;;;;;;;0.00;0.00;;;;;;;;6264953;22;49534;-76
2023/04/21 18:13:28;;;;;;;;;14.25;14.25;;;;;;;;6266010;22;49594;-77
2023/04/21 18:15:53;;;;;;;;;0.00;0.00;;;;;;;;6265929;22;49960;-77
2023/04/21 18:18:18;;;;;;;;;0.00;0.00;;;;;;;;6265448;22;50717;-77
2023/04/21 18:20:43;;;;;;;;;0.00;0.00;;;;;;;;6266487;22;49677;-78
2023/04/21 18:23:08;;;;;;;;;0.00;0.00;;;;;;;;6265392;22;49888;-80
2023/04/21 18:25:34;;;;;;;;;0.00;0.00;;;;;;;;6266721;22;49712;-84
2023/04/21 18:27:59;;;;;;;;;0.00;0.00;;;;;;;;6267462;22;49992;-81
2023/04/21 18:30:24;;;;;;;;;0.00;0.00;;;;;;;;6267208;22;49660;-77
2023/04/21 18:32:49;;;;;;;;;0.00;0.00;;;;;;;;6266621;22;49622;-82
2023/04/21 18:35:15;;;;;;;;;0.00;0.00;;;;;;;;6265374;22;49555;-75
2023/04/21 18:37:40;;;;;;;;;0.00;0.00;;;;;;;;6264926;22;51107;-79
2023/04/21 18:40:06;;;;;;;;;0.00;0.00;;;;;;;;6266137;22;50127;-76
2023/04/21 18:42:32;;;;;;;;;0.00;0.00;;;;;;;;6265853;22;49747;-82
2023/04/21 18:44:57;;;;;;;;;0.00;0.00;;;;;;;;6266096;22;49726;-81
2023/04/21 18:47:22;;;;;;;;;0.00;0.00;;;;;;;;6265804;22;50269;-72
2023/04/21 18:49:47;;;;;;;;;0.00;0.00;;;;;;;;6266219;22;49793;-74
2023/04/21 18:52:13;;;;;;;;;0.00;0.00;;;;;;;;6258747;22;50001;-73
2023/04/21 18:54:38;;;;;;;;;0.00;0.00;;;;;;;;6236201;22;49608;-74
2023/04/21 18:57:03;;;;;;;;;0.00;0.00;;;;;;;;6266081;22;50368;-73
2023/04/21 18:59:29;;;;;;;;;0.00;0.00;;;;;;;;6266007;22;49657;-73
2023/04/21 19:01:54;;;;;;;;;3.00;3.00;;;;;;;;6265719;22;50034;-73
2023/04/21 19:04:19;;;;;;;;;0.00;0.00;;;;;;;;6266348;22;50102;-74
2023/04/21 19:06:45;;;;;;;;;0.00;0.00;;;;;;;;6265799;22;49982;-74
2023/04/21 19:09:10;;;;;;;;;0.00;0.00;;;;;;;;6265382;22;49641;-73
2023/04/21 19:11:35;;;;;;;;;0.00;0.00;;;;;;;;6265272;22;50019;-75
2023/04/21 19:14:00;;;;;;;;;0.00;0.00;;;;;;;;6266028;22;49706;-74
2023/04/21 19:16:26;;;;;;;;;0.00;0.00;;;;;;;;6265496;22;50587;-74
2023/04/21 19:18:51;;;;;;;;;0.00;0.00;;;;;;;;6265553;22;49740;-74
2023/04/21 19:21:16;;;;;;;;;0.00;0.00;;;;;;;;6265254;22;49952;-74
2023/04/21 19:23:42;;;;;;;;;0.00;0.00;;;;;;;;6259827;22;49936;-74
2023/04/21 19:26:08;;;;;;;;;0.00;0.00;;;;;;;;6264409;22;50689;-73
2023/04/21 19:28:34;;;;;;;;;0.00;0.00;;;;;;;;6263814;22;49685;-74
2023/04/21 19:30:59;;;;;;;;;0.00;0.00;;;;;;;;6264113;22;50239;-73
2023/04/21 19:33:25;;;;;;;;;0.00;0.00;;;;;;;;6265659;22;49853;-73
2023/04/21 19:35:50;;;;;;;;;0.00;0.00;;;;;;;;6264056;22;51610;-72
2023/04/21 19:38:15;;;;;;;;;0.00;0.00;;;;;;;;6263714;22;49704;-73
2023/04/21 19:40:43;;;;;;;;;0.00;0.00;;;;;;;;6237135;22;50081;-73
2023/04/21 19:43:08;;;;;;;;;0.00;0.00;;;;;;;;6264048;22;49698;-73
2023/04/21 19:45:34;;;;;;;;;0.00;0.00;;;;;;;;6264814;22;50215;-72
2023/04/21 19:47:59;;;;;;;;;0.00;0.00;;;;;;;;6265893;22;49733;-77
2023/04/21 19:50:24;;;;;;;;;0.25;0.25;;;;;;;;6265476;22;50013;-75
2023/04/21 19:52:50;;;;;;;;;0.00;0.00;;;;;;;;6259253;22;49952;-72
2023/04/21 19:55:15;;;;;;;;;0.00;0.00;;;;;;;;6264482;22;49761;-73
2023/04/21 19:57:40;;;;;;;;;0.00;0.00;;;;;;;;6262431;22;49768;-72
2023/04/21 20:00:08;;;;;;;;;1.00;1.00;;;;;;;;6262236;22;49681;-72
2023/04/21 20:02:33;;;;;;;;;0.00;0.00;;;;;;;;6264585;22;49701;-73
2023/04/21 20:04:58;;;;;;;;;0.00;0.00;;;;;;;;6264081;22;50492;-73
2023/04/21 20:07:23;;;;;;;;;0.00;0.00;;;;;;;;6265208;22;49668;-73
2023/04/21 20:09:48;;;;;;;;;0.75;0.75;;;;;;;;6265232;22;49555;-73
2023/04/21 20:12:14;;;;;;;;;0.00;0.00;;;;;;;;6266364;22;49925;-73
2023/04/21 20:14:39;;;;;;;;;0.00;0.00;;;;;;;;6264017;22;49787;-74
2023/04/21 20:17:04;;;;;;;;;0.00;0.00;;;;;;;;6263546;22;49749;-73
2023/04/21 20:19:30;;;;;;;;;28.00;28.00;;;;;;;;6263428;22;49661;-72
2023/04/21 20:21:56;;;;;;;;;0.00;0.00;;;;;;;;6263491;22;50016;-74
2023/04/21 20:24:21;;;;;;;;;0.00;0.00;;;;;;;;6257659;22;50151;-72
2023/04/21 20:26:47;;;;;;;;;0.00;0.00;;;;;;;;6263727;22;50016;-72
2023/04/21 20:29:12;;;;;;;;;0.00;0.00;;;;;;;;6262446;22;50155;-71
2023/04/21 20:31:37;;;;;;;;;0.50;0.50;;;;;;;;6264601;22;49984;-72
2023/04/21 20:34:02;;;;;;;;;1.00;1.00;;;;;;;;6263973;22;51241;-71
2023/04/21 20:36:28;;;;;;;;;0.00;0.00;;;;;;;;6264322;22;50119;-72
2023/04/21 20:38:56;;;;;;;;;0.00;0.00;;;;;;;;6263656;22;49677;-73
2023/04/21 20:41:22;;;;;;;;;0.00;0.00;;;;;;;;6262499;22;50008;-75
